Time;durP1;ratioP1;P1;durP2;ratioP2;P2;SDS_P1;SDS_P2;PMS_P1;PMS_P2;Temp;Humidity;BMP_temperature;BMP_pressure;BME280_temperature;BME280_humidity;BME280_pressure;Samples;Min_cycle;Max_cycle;Signal;HPM_P1;HPM_P2
2021/10/27 00:01:08;;;;;;;43.40;25.83;;;230.60;1715.20;;;;;;5096741;28;20470;-61
2021/10/27 00:03:33;;;;;;;44.78;27.20;;;230.70;1715.20;;;;;;5096677;28;20462;-62
2021/10/27 00:05:59;;;;;;;46.95;26.80;;;230.60;1740.80;;;;;;5096816;28;20455;-61
2021/10/27 00:08:25;;;;;;;45.78;27.23;;;230.60;1715.20;;;;;;5096684;28;20027;-62
2021/10/27 00:10:51;;;;;;;48.95;28.42;;;230.60;1715.20;;;;;;5096821;28;20115;-62
2021/10/27 00:13:18;;;;;;;42.78;25.35;;;230.60;1740.80;;;;;;5095474;28;20020;-63
2021/10/27 00:15:44;;;;;;;42.38;25.58;;;230.60;1715.20;;;;;;5078224;28;20461;-62
2021/10/27 00:18:10;;;;;;;45.08;25.92;;;230.50;1740.80;;;;;;5096498;28;20126;-63
2021/10/27 00:20:36;;;;;;;42.00;25.33;;;230.50;1740.80;;;;;;5096549;28;20047;-63
2021/10/27 00:23:02;;;;;;;42.58;25.70;;;230.50;1740.80;;;;;;5096475;28;20466;-63
2021/10/27 00:25:28;;;;;;;47.08;25.30;;;230.50;1740.80;;;;;;5096554;28;20040;-62
2021/10/27 00:27:53;;;;;;;40.53;24.75;;;230.50;1715.20;;;;;;5096391;28;20078;-63
2021/10/27 00:30:19;;;;;;;44.38;24.70;;;230.50;1740.80;;;;;;5096417;28;20038;-63
2021/10/27 00:32:45;;;;;;;38.20;23.25;;;230.60;1740.80;;;;;;5096370;28;20474;-63
2021/10/27 00:35:11;;;;;;;38.60;22.95;;;230.60;1740.80;;;;;;5096262;28;20028;-62
2021/10/27 00:37:37;;;;;;;39.10;22.05;;;230.60;1740.80;;;;;;5096181;28;20417;-61
2021/10/27 00:40:05;;;;;;;37.70;21.95;;;230.50;1715.20;;;;;;5096009;28;20523;-61
2021/10/27 00:42:31;;;;;;;35.90;21.88;;;230.60;1740.80;;;;;;5077260;28;20080;-62
2021/10/27 00:44:57;;;;;;;39.10;24.20;;;230.60;1715.20;;;;;;5095894;28;20036;-61
2021/10/27 00:47:22;;;;;;;36.10;21.20;;;230.60;1715.20;;;;;;5095992;28;20020;-61
2021/10/27 00:49:48;;;;;;;35.17;21.13;;;230.50;1715.20;;;;;;5095529;28;20044;-61
2021/10/27 00:52:16;;;;;;;40.53;22.77;;;230.50;1715.20;;;;;;5095821;28;20028;-61
2021/10/27 00:54:44;;;;;;;33.13;21.63;;;230.50;1715.20;;;;;;5095895;28;20024;-61
2021/10/27 00:57:11;;;;;;;37.85;20.85;;;230.50;1689.60;;;;;;5096008;28;20444;-61
2021/10/27 00:59:41;;;;;;;33.22;21.40;;;230.60;1715.20;;;;;;5095719;28;20020;-62
2021/10/27 01:02:08;;;;;;;31.50;20.30;;;230.50;1715.20;;;;;;5095447;28;20509;-61
2021/10/27 01:04:34;;;;;;;39.38;20.83;;;230.60;1689.60;;;;;;5095080;28;20036;-61
2021/10/27 01:07:00;;;;;;;34.33;20.70;;;230.50;1715.20;;;;;;5095679;28;20028;-61
2021/10/27 01:09:26;;;;;;;33.40;19.48;;;230.50;1715.20;;;;;;5095558;28;20046;-61
2021/10/27 01:11:52;;;;;;;32.85;19.67;;;230.40;1715.20;;;;;;5095482;28;20347;-61
2021/10/27 01:14:18;;;;;;;31.27;20.17;;;230.40;1715.20;;;;;;5095016;28;20505;-61
2021/10/27 01:16:47;;;;;;;33.13;21.33;;;230.40;1715.20;;;;;;5095173;28;20027;-61
2021/10/27 01:19:14;;;;;;;35.78;20.35;;;230.40;1740.80;;;;;;5095264;28;20059;-61
2021/10/27 01:21:40;;;;;;;34.47;21.13;;;230.40;1715.20;;;;;;5095236;28;20016;-61
2021/10/27 01:24:07;;;;;;;32.95;20.30;;;230.40;1740.80;;;;;;5095083;28;20064;-61
2021/10/27 01:26:34;;;;;;;35.88;19.98;;;205.70;1740.80;;;;;;5095308;28;20047;-60
2021/10/27 01:29:00;;;;;;;31.70;20.52;;;205.70;1740.80;;;;;;5095004;28;20032;-63
2021/10/27 01:31:26;;;;;;;30.38;19.88;;;205.70;1766.40;;;;;;5095161;28;20085;-62
2021/10/27 01:33:52;;;;;;;33.17;20.45;;;205.70;1715.20;;;;;;5094355;28;20032;-62
2021/10/27 01:36:20;;;;;;;32.70;19.85;;;205.70;1740.80;;;;;;5095094;28;20027;-62
2021/10/27 01:38:47;;;;;;;36.17;19.75;;;205.70;1740.80;;;;;;5094895;28;20043;-63
2021/10/27 01:41:14;;;;;;;33.45;20.27;;;205.60;1740.80;;;;;;5094904;28;20095;-61
2021/10/27 01:43:55;;;;;;;34.70;20.42;;;205.60;1740.80;;;;;;5094789;28;20040;-61
2021/10/27 01:46:30;;;;;;;32.38;20.70;;;205.50;1740.80;;;;;;5094800;28;20046;-61
2021/10/27 01:48:56;;;;;;;;;;;205.50;1766.40;;;;;;5095123;28;20040;-62
2021/10/27 01:51:22;;;;;;;40.60;22.70;;;205.50;1740.80;;;;;;5094759;28;19908;-61
2021/10/27 01:53:47;;;;;;;36.75;22.58;;;205.40;1766.40;;;;;;5094735;28;20028;-61
2021/10/27 01:56:13;;;;;;;37.28;23.05;;;205.30;1766.40;;;;;;5075861;28;20073;-61
2021/10/27 01:58:39;;;;;;;39.42;23.70;;;205.40;1740.80;;;;;;5094720;28;20028;-61
2021/10/27 02:01:04;;;;;;;42.80;23.52;;;205.30;1766.40;;;;;;5094493;28;20094;-62
2021/10/27 02:03:30;;;;;;;37.08;21.75;;;205.30;1740.80;;;;;;5093372;28;20039;-62
2021/10/27 02:05:56;;;;;;;33.67;20.67;;;205.30;1766.40;;;;;;5094437;28;20362;-62
2021/10/27 02:08:21;;;;;;;36.42;20.75;;;205.30;1740.80;;;;;;5075947;28;20051;-61
2021/10/27 02:10:47;;;;;;;34.85;20.63;;;205.30;1766.40;;;;;;5094501;28;20024;-61
2021/10/27 02:13:13;;;;;;;32.55;18.95;;;205.20;1766.40;;;;;;5094448;28;20397;-61
2021/10/27 02:15:38;;;;;;;38.03;21.35;;;205.20;1766.40;;;;;;5094083;28;20381;-62
2021/10/27 02:18:04;;;;;;;37.85;22.20;;;205.20;1766.40;;;;;;5094328;28;20042;-62
2021/10/27 02:20:31;;;;;;;37.70;23.27;;;205.10;1766.40;;;;;;5094258;28;20024;-61
2021/10/27 02:22:56;;;;;;;46.70;24.40;;;205.20;1766.40;;;;;;5093717;28;20020;-62
2021/10/27 02:25:22;;;;;;;44.40;25.33;;;205.10;1766.40;;;;;;5093367;28;20042;-62
2021/10/27 02:27:48;;;;;;;50.22;28.27;;;205.20;1740.80;;;;;;5094165;28;20017;-62
2021/10/27 02:30:13;;;;;;;45.65;25.65;;;205.20;1766.40;;;;;;5093964;28;20056;-62
2021/10/27 02:32:39;;;;;;;36.92;22.20;;;205.10;1766.40;;;;;;5094077;28;20027;-62
2021/10/27 02:35:05;;;;;;;37.60;21.05;;;205.10;1766.40;;;;;;5093326;28;20466;-62
2021/10/27 02:37:31;;;;;;;44.83;21.17;;;205.10;1792.00;;;;;;5093593;28;20028;-62
2021/10/27 02:39:57;;;;;;;33.00;20.13;;;205.10;1766.40;;;;;;5094068;28;20546;-61
2021/10/27 02:42:23;;;;;;;32.38;20.23;;;205.10;1792.00;;;;;;5093798;28;20036;-62
2021/10/27 02:44:48;;;;;;;33.28;19.73;;;205.10;1766.40;;;;;;5093680;28;20050;-61
2021/10/27 02:47:14;;;;;;;30.95;21.13;;;205.00;1792.00;;;;;;5093832;28;20051;-62
2021/10/27 02:49:40;;;;;;;35.53;20.70;;;205.00;1792.00;;;;;;5093675;28;20047;-61
2021/10/27 02:52:06;;;;;;;32.55;20.00;;;205.00;1766.40;;;;;;5075780;28;20026;-62
2021/10/27 02:54:31;;;;;;;32.25;20.33;;;205.00;1792.00;;;;;;5093734;28;20042;-61
2021/10/27 02:56:57;;;;;;;33.50;20.20;;;205.00;1766.40;;;;;;5093760;28;20028;-61
2021/10/27 02:59:23;;;;;;;36.55;21.20;;;205.00;1792.00;;;;;;5093864;28;20032;-62
2021/10/27 03:01:49;;;;;;;35.80;21.45;;;204.90;1792.00;;;;;;5093659;28;20085;-62
2021/10/27 03:04:14;;;;;;;34.50;20.52;;;204.90;1792.00;;;;;;5093628;28;20066;-62
2021/10/27 03:06:41;;;;;;;35.80;23.45;;;204.80;1817.60;;;;;;5094188;28;20053;-61
2021/10/27 03:09:07;;;;;;;41.38;23.65;;;204.90;1766.40;;;;;;5093777;28;20031;-62
2021/10/27 03:11:32;;;;;;;43.97;22.40;;;204.80;1817.60;;;;;;5093381;28;20024;-61
2021/10/27 03:13:58;;;;;;;41.42;24.40;;;204.80;1817.60;;;;;;5093206;28;20061;-64
2021/10/27 03:16:24;;;;;;;44.10;25.10;;;204.80;1817.60;;;;;;5093492;28;20027;-62
2021/10/27 03:18:50;;;;;;;54.75;26.02;;;204.90;1817.60;;;;;;5074973;28;20047;-61
2021/10/27 03:21:15;;;;;;;46.08;25.75;;;204.80;1843.20;;;;;;5093631;28;20024;-62
2021/10/27 03:23:41;;;;;;;44.70;25.77;;;204.80;1868.80;;;;;;5093409;28;20393;-62
2021/10/27 03:26:07;;;;;;;40.22;25.27;;;205.00;1843.20;;;;;;5093549;28;20031;-63
2021/10/27 03:28:32;;;;;;;41.35;24.65;;;205.10;1817.60;;;;;;5093391;28;20031;-62
2021/10/27 03:30:59;;;;;;;41.50;25.05;;;205.10;1817.60;;;;;;5093494;28;20032;-63
2021/10/27 03:33:24;;;;;;;43.70;24.33;;;205.20;1792.00;;;;;;5093435;28;20455;-62
2021/10/27 03:35:50;;;;;;;40.97;23.42;;;205.30;1792.00;;;;;;5075194;28;20028;-61
2021/10/27 03:38:17;;;;;;;42.13;23.83;;;205.30;1792.00;;;;;;5075259;28;20044;-61
2021/10/27 03:40:45;;;;;;;39.90;24.17;;;205.30;1792.00;;;;;;5093423;28;20028;-62
2021/10/27 03:43:11;;;;;;;42.05;25.58;;;205.40;1792.00;;;;;;5093064;28;20035;-62
2021/10/27 03:45:37;;;;;;;44.63;27.13;;;205.50;1792.00;;;;;;5074805;28;20036;-62
2021/10/27 03:48:04;;;;;;;41.97;26.70;;;205.50;1766.40;;;;;;5093097;28;20024;-63
2021/10/27 03:50:30;;;;;;;46.67;27.20;;;205.60;1766.40;;;;;;5096687;28;20052;-64
2021/10/27 03:52:55;;;;;;;53.45;29.02;;;205.60;1766.40;;;;;;5097093;28;20031;-62
2021/10/27 03:55:21;;;;;;;51.92;29.05;;;205.60;1766.40;;;;;;5078528;28;20046;-62
2021/10/27 03:57:47;;;;;;;50.85;29.98;;;205.70;1766.40;;;;;;5097006;28;20032;-62
2021/10/27 04:00:13;;;;;;;61.95;32.88;;;205.70;1740.80;;;;;;5097040;28;20028;-62
2021/10/27 04:02:40;;;;;;;71.10;38.72;;;205.70;1740.80;;;;;;5096721;28;20455;-62
2021/10/27 04:05:06;;;;;;;90.47;46.50;;;205.70;1740.80;;;;;;5096635;28;20036;-63
2021/10/27 04:07:36;;;;;;;97.82;51.85;;;205.70;1740.80;;;;;;5096775;28;20103;-62
2021/10/27 04:10:12;;;;;;;94.72;48.83;;;230.40;1740.80;;;;;;5096837;28;20420;-63
2021/10/27 04:12:40;;;;;;;81.45;43.50;;;230.40;1740.80;;;;;;5096449;28;20039;-63
2021/10/27 04:15:08;;;;;;;70.82;36.63;;;230.40;1740.80;;;;;;5096684;28;20102;-63
2021/10/27 04:17:34;;;;;;;53.25;30.60;;;230.40;1740.80;;;;;;5078341;28;20036;-63
2021/10/27 04:20:01;;;;;;;49.90;29.58;;;230.40;1715.20;;;;;;5096604;28;20032;-64
2021/10/27 04:22:27;;;;;;;59.90;30.83;;;230.40;1715.20;;;;;;5096469;28;20039;-63
2021/10/27 04:24:53;;;;;;;82.28;41.25;;;230.40;1715.20;;;;;;5096440;28;20044;-63
2021/10/27 04:27:18;;;;;;;101.47;48.53;;;230.40;1715.20;;;;;;5096529;28;20420;-63
2021/10/27 04:29:44;;;;;;;87.60;43.95;;;230.40;1715.20;;;;;;5077404;28;20042;-62
2021/10/27 04:32:10;;;;;;;73.65;39.85;;;230.40;1715.20;;;;;;5096069;28;20048;-63
2021/10/27 04:34:36;;;;;;;76.47;40.30;;;205.70;1715.20;;;;;;5077779;28;20077;-63
2021/10/27 04:37:02;;;;;;;63.70;34.03;;;205.70;1715.20;;;;;;5096226;28;20020;-62
2021/10/27 04:39:27;;;;;;;50.65;30.73;;;205.70;1715.20;;;;;;5096147;28;20028;-63
2021/10/27 04:41:53;;;;;;;53.20;27.90;;;205.70;1715.20;;;;;;5096071;28;20021;-62
2021/10/27 04:44:19;;;;;;;41.25;25.63;;;205.70;1715.20;;;;;;5095698;28;20059;-62
2021/10/27 04:46:45;;;;;;;40.38;25.55;;;205.70;1689.60;;;;;;5096016;28;20069;-62
2021/10/27 04:49:11;;;;;;;42.28;25.20;;;205.70;1689.60;;;;;;5095795;28;20051;-62
2021/10/27 04:51:37;;;;;;;40.03;23.80;;;205.70;1689.60;;;;;;5095744;28;20058;-62
2021/10/27 04:54:03;;;;;;;40.22;25.30;;;205.70;1689.60;;;;;;5096464;28;20462;-62
2021/10/27 04:56:30;;;;;;;41.45;24.50;;;205.70;1689.60;;;;;;5095910;28;20130;-62
2021/10/27 04:58:56;;;;;;;37.35;24.33;;;205.70;1689.60;;;;;;5095668;28;20028;-62
2021/10/27 05:01:21;;;;;;;38.97;24.17;;;205.70;1689.60;;;;;;5095456;28;20093;-62
2021/10/27 05:03:47;;;;;;;38.17;22.83;;;205.70;1689.60;;;;;;5095404;28;20461;-62
2021/10/27 05:06:13;;;;;;;49.60;22.45;;;205.70;1689.60;;;;;;5076949;28;20119;-62
2021/10/27 05:08:39;;;;;;;42.38;21.92;;;205.70;1689.60;;;;;;5096181;28;20055;-62
2021/10/27 05:11:05;;;;;;;35.72;20.17;;;205.70;1664.00;;;;;;5095369;28;20028;-62
2021/10/27 05:13:31;;;;;;;39.47;20.08;;;205.70;1689.60;;;;;;5095354;28;20052;-62
2021/10/27 05:15:57;;;;;;;38.50;19.13;;;205.70;1664.00;;;;;;5095512;28;20535;-62
2021/10/27 05:18:22;;;;;;;33.40;18.77;;;205.70;1664.00;;;;;;5095485;28;20028;-62
2021/10/27 05:20:48;;;;;;;36.72;19.52;;;205.60;1689.60;;;;;;5095446;28;20385;-62
2021/10/27 05:23:14;;;;;;;33.75;20.30;;;205.60;1689.60;;;;;;5095277;28;20462;-63
2021/10/27 05:25:40;;;;;;;32.42;17.25;;;205.50;1664.00;;;;;;5095217;28;20043;-68
2021/10/27 05:28:06;;;;;;;31.38;16.65;;;205.40;1689.60;;;;;;5095314;28;20042;-62
2021/10/27 05:30:32;;;;;;;32.17;15.57;;;205.30;1689.60;;;;;;5095180;28;20111;-62
2021/10/27 05:32:59;;;;;;;26.70;17.15;;;205.20;1715.20;;;;;;5095118;28;20027;-62
2021/10/27 05:35:26;;;;;;;31.27;18.10;;;205.00;1740.80;;;;;;5095188;28;20401;-62
2021/10/27 05:37:52;;;;;;;34.03;19.45;;;204.90;1740.80;;;;;;5075948;28;20032;-62
2021/10/27 05:40:18;;;;;;;30.73;19.67;;;204.90;1740.80;;;;;;5095216;28;20365;-65
2021/10/27 05:42:45;;;;;;;37.10;20.65;;;204.80;1766.40;;;;;;5094436;28;20020;-62
2021/10/27 05:45:12;;;;;;;33.22;18.75;;;204.80;1766.40;;;;;;5094315;28;20036;-62
2021/10/27 05:47:43;;;;;;;28.83;16.80;;;204.80;1766.40;;;;;;5095129;28;20035;-63
2021/10/27 05:55:34;;;;;;;23.52;15.80;;;204.80;1766.40;;;;;;5095163;28;20116;-63
2021/10/27 05:58:01;;;;;;;25.67;15.35;;;204.80;1792.00;;;;;;5094632;28;20034;-63
2021/10/27 06:00:27;;;;;;;26.95;15.35;;;204.80;1766.40;;;;;;5094071;28;20178;-63
2021/10/27 06:02:53;;;;;;;28.65;14.52;;;204.80;1766.40;;;;;;5076590;28;20529;-63
2021/10/27 06:05:19;;;;;;;26.95;15.02;;;204.80;1766.40;;;;;;5094793;28;20121;-63
2021/10/27 06:07:45;;;;;;;26.75;15.30;;;204.80;1766.40;;;;;;5094542;28;20051;-63
2021/10/27 06:10:13;;;;;;;28.08;16.80;;;204.80;1792.00;;;;;;5094467;28;20045;-63
2021/10/27 06:12:39;;;;;;;32.10;15.45;;;204.80;1766.40;;;;;;5093510;28;20069;-63
2021/10/27 06:15:06;;;;;;;30.63;19.13;;;204.80;1792.00;;;;;;5075417;28;20462;-63
2021/10/27 06:17:32;;;;;;;35.13;20.15;;;204.80;1792.00;;;;;;5094189;28;20466;-63
2021/10/27 06:19:58;;;;;;;37.47;22.98;;;204.90;1766.40;;;;;;5094178;28;20069;-63
2021/10/27 06:22:23;;;;;;;38.88;23.25;;;204.80;1792.00;;;;;;5076002;28;20036;-63
2021/10/27 06:24:50;;;;;;;39.15;24.48;;;204.90;1792.00;;;;;;5094080;28;20032;-63
2021/10/27 06:27:15;;;;;;;49.35;29.73;;;204.90;1792.00;;;;;;5094117;28;20028;-63
2021/10/27 06:29:46;;;;;;;44.03;27.73;;;204.90;1817.60;;;;;;5093950;28;20039;-63
2021/10/27 06:34:57;;;;;;;44.83;28.05;;;205.00;1792.00;;;;;;5093997;28;20024;-63
2021/10/27 06:48:19;;;;;;;45.50;23.98;;;205.20;1792.00;;;;;;5093851;28;20089;-63
2021/10/27 06:50:45;;;;;;;46.65;25.75;;;205.10;1817.60;;;;;;5093772;28;20522;-63
2021/10/27 06:53:11;;;;;;;50.65;26.42;;;205.20;1817.60;;;;;;5108888;28;20078;-63
2021/10/27 06:55:39;;;;;;;43.38;24.70;;;205.20;1817.60;;;;;;5093831;28;20036;-63
2021/10/27 06:58:06;;;;;;;45.72;26.35;;;205.10;1843.20;;;;;;5093531;28;20028;-63
2021/10/27 07:16:07;;;;;;;45.88;29.23;;;205.60;1817.60;;;;;;5093435;28;20342;-63
2021/10/27 07:18:34;;;;;;;51.38;30.23;;;205.70;1817.60;;;;;;5093581;28;20024;-63
2021/10/27 07:21:00;;;;;;;44.47;27.98;;;205.70;1843.20;;;;;;5093216;28;20028;-62
2021/10/27 07:23:27;;;;;;;50.97;29.27;;;205.70;1843.20;;;;;;5095626;28;20036;-62
2021/10/27 07:25:57;;;;;;;47.63;29.23;;;205.60;1843.20;;;;;;5097230;28;20081;-62
2021/10/27 07:28:28;;;;;;;47.40;29.13;;;205.60;1843.20;;;;;;5097581;28;20514;-62
2021/10/27 07:30:55;;;;;;;55.13;33.08;;;205.70;1843.20;;;;;;5078431;28;20370;-63
2021/10/27 07:33:21;;;;;;;75.60;42.28;;;205.60;1868.80;;;;;;5097540;28;20371;-63
2021/10/27 07:41:16;;;;;;;69.17;43.60;;;205.70;1868.80;;;;;;5097680;28;20500;-62
2021/10/27 07:43:43;;;;;;;66.07;40.22;;;205.70;1894.40;;;;;;5097125;28;20043;-63
2021/10/27 07:46:08;;;;;;;67.22;41.55;;;205.70;1894.40;;;;;;5097090;28;20056;-63
2021/10/27 07:48:35;;;;;;;79.05;46.67;;;230.40;1894.40;;;;;;5097489;28;20070;-63
2021/10/27 07:51:01;;;;;;;65.50;41.08;;;230.40;1894.40;;;;;;5096958;28;20516;-62
2021/10/27 07:53:28;;;;;;;66.32;37.72;;;230.40;1894.40;;;;;;5096995;28;20461;-62
2021/10/27 07:55:55;;;;;;;53.13;35.65;;;230.40;1894.40;;;;;;5077304;28;20395;-62
2021/10/27 07:58:22;;;;;;;55.15;34.70;;;230.60;1894.40;;;;;;5077290;28;20023;-63
2021/10/27 08:00:53;;;;;;;51.03;34.22;;;230.60;1894.40;;;;;;5095439;28;20045;-62
2021/10/27 08:03:19;;;;;;;50.88;32.65;;;230.50;1894.40;;;;;;5076943;28;20485;-63
2021/10/27 08:05:45;;;;;;;45.17;31.30;;;230.60;1920.00;;;;;;5095294;28;20092;-62
2021/10/27 08:08:13;;;;;;;47.40;32.60;;;230.60;1920.00;;;;;;5095470;28;20024;-62
2021/10/27 08:10:40;;;;;;;46.83;30.52;;;230.70;1920.00;;;;;;5096870;28;20102;-62
2021/10/27 08:13:07;;;;;;;47.55;32.33;;;230.70;1920.00;;;;;;5096717;28;20035;-62
2021/10/27 08:15:33;;;;;;;49.63;33.28;;;230.80;1920.00;;;;;;5096470;28;20028;-62
2021/10/27 08:18:00;;;;;;;46.90;34.38;;;230.90;1920.00;;;;;;5097181;28;20027;-63
2021/10/27 08:20:27;;;;;;;41.97;32.33;;;230.90;1920.00;;;;;;5095957;28;20032;-63
2021/10/27 08:22:56;;;;;;;48.35;34.50;;;231.00;1894.40;;;;;;5095799;28;20031;-62
2021/10/27 08:25:30;;;;;;;54.10;35.97;;;231.00;1894.40;;;;;;5095731;28;20101;-62
2021/10/27 08:28:00;;;;;;;54.30;37.03;;;231.10;1894.40;;;;;;5095831;28;20017;-62
2021/10/27 08:30:34;;;;;;;78.45;49.25;;;231.10;1894.40;;;;;;5093006;28;20038;-62
2021/10/27 08:33:02;;;;;;;115.80;72.63;;;231.10;1894.40;;;;;;5095734;28;20462;-62
2021/10/27 08:35:30;;;;;;;116.13;68.05;;;231.20;1894.40;;;;;;5092560;28;20465;-62
2021/10/27 08:37:56;;;;;;;88.53;56.60;;;231.20;1894.40;;;;;;5095517;28;20020;-63
2021/10/27 08:40:22;;;;;;;61.85;40.95;;;231.20;1894.40;;;;;;5077463;28;20016;-62
2021/10/27 08:42:49;;;;;;;54.83;38.08;;;231.30;1894.40;;;;;;5095089;28;20084;-63
2021/10/27 08:45:15;;;;;;;79.82;44.42;;;231.30;1894.40;;;;;;5094138;28;20532;-62
2021/10/27 08:47:49;;;;;;;88.65;50.33;;;231.30;1894.40;;;;;;5094360;28;20059;-63
2021/10/27 08:50:15;;;;;;;64.43;41.25;;;256.00;1894.40;;;;;;5092466;28;20044;-63
2021/10/27 08:52:43;;;;;;;52.30;35.72;;;256.00;1868.80;;;;;;5094650;28;20092;-60
2021/10/27 08:55:12;;;;;;;68.45;43.33;;;256.00;1894.40;;;;;;5095900;28;20359;-60
2021/10/27 08:57:39;;;;;;;85.47;55.42;;;256.00;1868.80;;;;;;5095726;28;20030;-65
2021/10/27 09:00:15;;;;;;;100.05;55.50;;;256.00;1868.80;;;;;;5095373;28;20020;-60
2021/10/27 09:43:54;;;;;;;126.07;62.10;;;256.30;1920.00;;;;;;5094870;28;20382;-61
2021/10/27 10:05:13;;;;;;;122.60;69.07;;;256.80;1894.40;;;;;;4991348;28;20410;-65
2021/10/27 10:07:39;;;;;;;145.15;84.38;;;256.80;1894.40;;;;;;4986180;28;20131;-67
2021/10/27 10:10:08;;;;;;;142.23;84.65;;;256.80;1868.80;;;;;;4991396;28;20030;-67
2021/10/27 10:12:42;;;;;;;143.15;84.88;;;256.90;1894.40;;;;;;4991035;28;20034;-66
2021/10/27 10:15:10;;;;;;;145.38;90.82;;;256.90;1894.40;;;;;;4991239;28;20031;-65
2021/10/27 10:17:42;;;;;;;160.75;94.53;;;281.60;1920.00;;;;;;4991178;28;20467;-65
2021/10/27 10:20:13;;;;;;;150.40;88.80;;;281.60;1920.00;;;;;;4976037;28;20177;-65
2021/10/27 10:22:42;;;;;;;130.82;84.70;;;281.70;1920.00;;;;;;4991655;28;20472;-66
2021/10/27 10:25:21;;;;;;;119.70;73.10;;;281.80;1894.40;;;;;;4990960;28;20038;-64
2021/10/27 10:27:58;;;;;;;118.88;75.65;;;281.80;1894.40;;;;;;4992315;28;20599;-66
2021/10/27 10:30:37;;;;;;;115.63;74.28;;;281.90;1894.40;;;;;;4991651;28;20038;-64
2021/10/27 10:33:05;;;;;;;118.97;72.55;;;281.90;1894.40;;;;;;5037754;28;20096;-65
2021/10/27 10:56:13;;;;;;;68.55;46.80;;;307.20;1920.00;;;;;;4973246;28;20041;-66
2021/10/27 11:11:52;;;;;;;115.28;69.30;;;307.50;1894.40;;;;;;4934450;29;20521;-66
2021/10/27 11:23:51;;;;;;;73.40;46.55;;;308.00;1843.20;;;;;;4992444;28;20114;-64
2021/10/27 11:37:35;;;;;;;68.22;44.85;;;333.10;1843.20;;;;;;4992093;28;20101;-64
2021/10/27 11:40:14;;;;;;;63.83;44.28;;;333.10;1843.20;;;;;;4991726;28;20045;-64
2021/10/27 11:45:16;;;;;;;80.78;49.88;;;333.30;1843.20;;;;;;5073295;28;20032;-64
2021/10/27 11:47:45;;;;;;;69.53;47.78;;;333.30;1843.20;;;;;;5073016;28;20025;-64
2021/10/27 11:50:16;;;;;;;70.25;45.47;;;333.30;1843.20;;;;;;5072837;28;20048;-65
2021/10/27 11:52:44;;;;;;;70.22;45.45;;;333.40;1817.60;;;;;;5073119;28;20112;-64
2021/10/27 11:55:12;;;;;;;65.72;41.08;;;333.50;1792.00;;;;;;5071328;28;20070;-65
2021/10/27 11:57:39;;;;;;;62.30;36.67;;;333.50;1766.40;;;;;;5073088;28;20031;-65
2021/10/27 12:00:32;;;;;;;69.05;38.97;;;333.60;1740.80;;;;;;5072881;28;20040;-64
2021/10/27 12:03:11;;;;;;;60.97;37.72;;;333.70;1740.80;;;;;;5073227;28;20020;-65
2021/10/27 12:05:50;;;;;;;73.93;40.85;;;333.70;1740.80;;;;;;5072757;28;20490;-64
2021/10/27 12:11:15;;;;;;;70.03;46.38;;;358.40;1715.20;;;;;;5076152;28;20488;-64
2021/10/27 12:19:22;;;;;;;52.25;35.15;;;358.60;1689.60;;;;;;5054220;28;20029;-64
2021/10/27 12:21:51;;;;;;;50.60;34.72;;;358.60;1689.60;;;;;;5054123;28;20029;-64
2021/10/27 12:24:23;;;;;;;45.88;31.55;;;358.60;1689.60;;;;;;5054202;28;20084;-64
2021/10/27 12:29:35;;;;;;;41.63;30.60;;;358.80;1638.40;;;;;;5053413;28;20025;-64
2021/10/27 12:32:08;;;;;;;40.83;27.67;;;358.90;1664.00;;;;;;5036234;28;20032;-64
2021/10/27 12:34:45;;;;;;;34.13;23.00;;;358.90;1638.40;;;;;;5053091;28;20041;-64
2021/10/27 12:37:31;;;;;;;36.95;24.38;;;358.90;1587.20;;;;;;5052329;28;20033;-64
2021/10/27 12:40:11;;;;;;;35.47;23.75;;;359.00;1612.80;;;;;;5033179;28;20033;-64
2021/10/27 12:42:37;;;;;;;32.83;20.80;;;359.00;1612.80;;;;;;5050687;28;20428;-64
2021/10/27 12:45:04;;;;;;;31.02;21.02;;;359.00;1587.20;;;;;;5052037;28;20271;-64
2021/10/27 12:47:33;;;;;;;29.33;19.55;;;359.10;1587.20;;;;;;5049133;28;20168;-64
2021/10/27 12:50:16;;;;;;;36.28;22.48;;;359.10;1561.60;;;;;;5051850;28;20056;-64
2021/10/27 12:52:52;;;;;;;31.75;19.88;;;359.20;1587.20;;;;;;5078234;28;20063;-64
2021/10/27 12:55:27;;;;;;;33.28;19.98;;;359.20;1561.60;;;;;;5092610;28;20013;-66
2021/10/27 12:57:54;;;;;;;37.50;22.13;;;359.20;1536.00;;;;;;5091217;28;20363;-65
2021/10/27 13:03:31;;;;;;;34.38;21.13;;;359.30;1587.20;;;;;;5009866;28;20136;-65
2021/10/27 13:06:05;;;;;;;31.83;22.58;;;359.30;1587.20;;;;;;5009856;28;20141;-65
2021/10/27 13:20:02;;;;;;;39.67;25.60;;;359.30;1561.60;;;;;;5033099;28;20068;-64
2021/10/27 13:30:06;;;;;;;36.58;23.35;;;359.30;1587.20;;;;;;5008584;28;20084;-65
2021/10/27 13:32:33;;;;;;;37.30;23.73;;;359.30;1536.00;;;;;;5020599;28;20080;-65
2021/10/27 13:34:59;;;;;;;37.03;24.55;;;359.20;1536.00;;;;;;4996550;28;20057;-66
2021/10/27 13:37:27;;;;;;;36.97;24.77;;;359.20;1561.60;;;;;;5011539;28;20034;-66
2021/10/27 13:39:53;;;;;;;36.40;23.95;;;359.20;1561.60;;;;;;5033844;28;20038;-65
2021/10/27 13:42:31;;;;;;;56.25;26.33;;;359.10;1536.00;;;;;;5072443;28;20041;-66
2021/10/27 13:47:56;;;;;;;;;;;;;;;;;;;;;
2021/10/27 14:09:41;;;;;;;41.28;26.00;;;359.00;1561.60;;;;;;4991919;28;20041;-64
2021/10/27 14:47:48;;;;;;;;;;;;;;;;;;;;;
2021/10/27 15:23:22;;;;;;;193.95;41.22;;;333.50;1689.60;;;;;;5093635;28;20038;-63
2021/10/27 15:26:02;;;;;;;226.52;47.28;;;333.60;1715.20;;;;;;5089079;28;20048;-63
2021/10/27 15:28:50;;;;;;;206.93;52.90;;;333.50;1715.20;;;;;;5093108;28;20027;-67
2021/10/27 15:31:35;;;;;;;193.52;55.53;;;333.50;1715.20;;;;;;5093656;28;20024;-63
2021/10/27 15:36:55;;;;;;;110.80;52.22;;;333.40;1715.20;;;;;;5093405;28;19926;-64
2021/10/27 15:52:33;;;;;;;168.38;83.25;;;333.00;1740.80;;;;;;5096753;28;20093;-64
2021/10/27 15:54:59;;;;;;;150.00;78.40;;;333.00;1740.80;;;;;;5095499;28;20103;-66
2021/10/27 15:57:25;;;;;;;163.70;82.30;;;332.90;1715.20;;;;;;5110707;28;20118;-67
2021/10/27 15:59:54;;;;;;;179.40;84.32;;;332.80;1740.80;;;;;;5095598;28;20035;-66
2021/10/27 16:02:21;;;;;;;195.88;94.90;;;332.80;1766.40;;;;;;5095132;28;20020;-66
2021/10/27 16:04:47;;;;;;;227.38;108.93;;;332.80;1766.40;;;;;;5078185;28;20503;-66
2021/10/27 16:07:16;;;;;;;265.23;122.88;;;308.10;1740.80;;;;;;5096980;28;20024;-65
2021/10/27 16:09:47;;;;;;;304.40;143.00;;;308.00;1740.80;;;;;;5096824;28;20031;-65
2021/10/27 16:12:12;;;;;;;294.23;141.25;;;308.00;1740.80;;;;;;5096843;28;20024;-66
2021/10/27 16:14:39;;;;;;;313.05;141.82;;;307.90;1740.80;;;;;;5096754;28;20485;-66
2021/10/27 16:17:05;;;;;;;293.67;136.88;;;307.90;1766.40;;;;;;5096270;28;20465;-66
2021/10/27 16:19:32;;;;;;;329.52;158.73;;;307.90;1766.40;;;;;;5096453;28;20076;-66
2021/10/27 16:21:58;;;;;;;378.50;186.45;;;307.80;1766.40;;;;;;5096492;28;20043;-66
2021/10/27 16:24:25;;;;;;;403.92;206.13;;;307.70;1766.40;;;;;;5096030;28;20047;-66
2021/10/27 16:26:55;;;;;;;395.08;206.57;;;307.70;1766.40;;;;;;5096187;28;20040;-66
2021/10/27 16:29:21;;;;;;;363.23;184.63;;;307.70;1766.40;;;;;;5096094;28;20028;-64
2021/10/27 16:31:48;;;;;;;385.42;195.52;;;307.60;1792.00;;;;;;5096040;28;20025;-65
2021/10/27 16:34:14;;;;;;;392.27;206.63;;;307.50;1792.00;;;;;;5096064;28;20122;-65
2021/10/27 16:36:42;;;;;;;409.05;212.15;;;307.50;1792.00;;;;;;5096123;28;20454;-66
2021/10/27 16:39:08;;;;;;;435.52;224.93;;;307.50;1766.40;;;;;;5095600;28;20016;-66
2021/10/27 16:41:34;;;;;;;465.92;242.52;;;307.40;1792.00;;;;;;5077209;28;20127;-65
2021/10/27 16:43:59;;;;;;;465.10;252.20;;;307.40;1792.00;;;;;;5096459;28;20477;-66
2021/10/27 16:46:25;;;;;;;481.40;265.20;;;307.30;1792.00;;;;;;5095942;28;20025;-66
2021/10/27 16:48:51;;;;;;;470.65;261.45;;;307.30;1792.00;;;;;;5095263;28;20111;-66
2021/10/27 16:51:19;;;;;;;455.73;255.77;;;307.20;1792.00;;;;;;5077383;28;20123;-65
2021/10/27 16:53:44;;;;;;;467.15;263.65;;;307.20;1792.00;;;;;;5091767;28;20020;-64
2021/10/27 16:56:10;;;;;;;500.98;300.88;;;282.50;1766.40;;;;;;5093735;28;20034;-65
2021/10/27 16:58:36;;;;;;;506.95;306.08;;;282.50;1766.40;;;;;;5094270;28;20028;-65